sensor_id;sensor_type;location;lat;lon;timestamp;temperature;humidity
43346;DHT22;28937;51.160;4.146;2022-08-25T00:00:39;27.30;90.20
43346;DHT22;28937;51.160;4.146;2022-08-25T00:03:05;27.40;90.20
43346;DHT22;28937;51.160;4.146;2022-08-25T00:05:30;27.30;90.20
43346;DHT22;28937;51.160;4.146;2022-08-25T00:07:56;27.40;90.30
43346;DHT22;28937;51.160;4.146;2022-08-25T00:10:22;27.30;90.30
43346;DHT22;28937;51.160;4.146;2022-08-25T00:12:48;27.30;90.30
43346;DHT22;28937;51.160;4.146;2022-08-25T00:15:14;27.20;90.30
43346;DHT22;28937;51.160;4.146;2022-08-25T00:17:40;27.30;90.40
43346;DHT22;28937;51.160;4.146;2022-08-25T00:20:06;27.30;90.40
43346;DHT22;28937;51.160;4.146;2022-08-25T00:22:34;27.20;90.40
43346;DHT22;28937;51.160;4.146;2022-08-25T00:24:59;27.20;90.40
43346;DHT22;28937;51.160;4.146;2022-08-25T00:27:25;27.20;90.40
43346;DHT22;28937;51.160;4.146;2022-08-25T00:29:51;27.20;90.40
43346;DHT22;28937;51.160;4.146;2022-08-25T00:32:17;27.10;90.50
43346;DHT22;28937;51.160;4.146;2022-08-25T00:34:43;27.10;90.70
43346;DHT22;28937;51.160;4.146;2022-08-25T00:37:09;27.10;90.60
43346;DHT22;28937;51.160;4.146;2022-08-25T00:39:35;27.00;90.90
43346;DHT22;28937;51.160;4.146;2022-08-25T00:42:01;27.00;90.70
43346;DHT22;28937;51.160;4.146;2022-08-25T00:44:31;27.00;90.80
43346;DHT22;28937;51.160;4.146;2022-08-25T00:46:59;27.00;90.80
43346;DHT22;28937;51.160;4.146;2022-08-25T00:52:10;26.90;90.90
43346;DHT22;28937;51.160;4.146;2022-08-25T00:54:49;26.80;91.00
43346;DHT22;28937;51.160;4.146;2022-08-25T00:57:20;26.90;90.90
43346;DHT22;28937;51.160;4.146;2022-08-25T00:59:47;26.80;90.90
43346;DHT22;28937;51.160;4.146;2022-08-25T01:02:14;26.90;90.80
43346;DHT22;28937;51.160;4.146;2022-08-25T01:04:43;26.90;90.80
43346;DHT22;28937;51.160;4.146;2022-08-25T01:07:10;26.90;90.70
43346;DHT22;28937;51.160;4.146;2022-08-25T01:09:37;26.90;90.70
43346;DHT22;28937;51.160;4.146;2022-08-25T01:12:03;26.80;90.80
43346;DHT22;28937;51.160;4.146;2022-08-25T01:14:30;26.80;90.90
43346;DHT22;28937;51.160;4.146;2022-08-25T01:16:57;26.80;90.90
43346;DHT22;28937;51.160;4.146;2022-08-25T01:19:25;26.80;90.90
43346;DHT22;28937;51.160;4.146;2022-08-25T01:21:52;26.80;90.70
43346;DHT22;28937;51.160;4.146;2022-08-25T01:26:56;26.80;90.70
43346;DHT22;28937;51.160;4.146;2022-08-25T01:29:22;26.80;90.60
43346;DHT22;28937;51.160;4.146;2022-08-25T01:31:59;26.80;90.60
43346;DHT22;28937;51.160;4.146;2022-08-25T01:34:27;26.80;90.60
43346;DHT22;28937;51.160;4.146;2022-08-25T01:36:54;26.80;90.60
43346;DHT22;28937;51.160;4.146;2022-08-25T01:39:21;26.80;90.60
43346;DHT22;28937;51.160;4.146;2022-08-25T01:44:19;26.90;90.60
43346;DHT22;28937;51.160;4.146;2022-08-25T01:46:44;26.80;90.50
43346;DHT22;28937;51.160;4.146;2022-08-25T01:49:10;26.80;90.60
43346;DHT22;28937;51.160;4.146;2022-08-25T01:51:43;26.80;90.60
43346;DHT22;28937;51.160;4.146;2022-08-25T01:54:11;26.80;90.60
43346;DHT22;28937;51.160;4.146;2022-08-25T01:56:37;26.80;90.60
43346;DHT22;28937;51.160;4.146;2022-08-25T01:59:03;26.70;90.60
43346;DHT22;28937;51.160;4.146;2022-08-25T02:01:29;26.70;90.70
43346;DHT22;28937;51.160;4.146;2022-08-25T02:03:55;26.70;90.70
43346;DHT22;28937;51.160;4.146;2022-08-25T02:06:25;26.70;90.70
43346;DHT22;28937;51.160;4.146;2022-08-25T02:08:54;26.60;90.70
43346;DHT22;28937;51.160;4.146;2022-08-25T02:11:20;26.60;90.80
43346;DHT22;28937;51.160;4.146;2022-08-25T02:13:48;26.60;90.70
43346;DHT22;28937;51.160;4.146;2022-08-25T02:16:19;26.60;90.70
43346;DHT22;28937;51.160;4.146;2022-08-25T02:18:46;26.60;90.70
43346;DHT22;28937;51.160;4.146;2022-08-25T02:21:12;26.60;90.70
43346;DHT22;28937;51.160;4.146;2022-08-25T02:23:39;26.50;90.80
43346;DHT22;28937;51.160;4.146;2022-08-25T02:26:04;26.50;90.80
43346;DHT22;28937;51.160;4.146;2022-08-25T02:28:30;26.50;90.80
43346;DHT22;28937;51.160;4.146;2022-08-25T02:30:56;26.50;90.80
43346;DHT22;28937;51.160;4.146;2022-08-25T02:33:21;26.50;90.80
43346;DHT22;28937;51.160;4.146;2022-08-25T02:35:47;26.50;90.80
43346;DHT22;28937;51.160;4.146;2022-08-25T02:38:13;26.50;90.80
43346;DHT22;28937;51.160;4.146;2022-08-25T02:40:39;26.40;90.70
43346;DHT22;28937;51.160;4.146;2022-08-25T02:43:04;26.40;90.70
43346;DHT22;28937;51.160;4.146;2022-08-25T02:45:31;26.40;90.70
43346;DHT22;28937;51.160;4.146;2022-08-25T02:47:56;26.40;90.80
43346;DHT22;28937;51.160;4.146;2022-08-25T02:50:22;26.40;90.90
43346;DHT22;28937;51.160;4.146;2022-08-25T02:52:48;26.40;90.80
43346;DHT22;28937;51.160;4.146;2022-08-25T02:55:16;26.40;90.70
43346;DHT22;28937;51.160;4.146;2022-08-25T02:57:42;26.30;90.70
43346;DHT22;28937;51.160;4.146;2022-08-25T03:00:10;26.30;90.80
43346;DHT22;28937;51.160;4.146;2022-08-25T03:02:37;26.30;90.80
43346;DHT22;28937;51.160;4.146;2022-08-25T03:05:05;26.30;90.80
43346;DHT22;28937;51.160;4.146;2022-08-25T03:07:32;26.20;90.80
43346;DHT22;28937;51.160;4.146;2022-08-25T03:09:58;26.20;90.90
43346;DHT22;28937;51.160;4.146;2022-08-25T03:12:24;26.10;90.90
43346;DHT22;28937;51.160;4.146;2022-08-25T03:14:50;26.20;90.90
43346;DHT22;28937;51.160;4.146;2022-08-25T03:17:15;26.10;90.90
43346;DHT22;28937;51.160;4.146;2022-08-25T03:19:41;26.00;90.80
43346;DHT22;28937;51.160;4.146;2022-08-25T03:22:06;26.00;90.80
43346;DHT22;28937;51.160;4.146;2022-08-25T03:24:32;26.00;90.80
43346;DHT22;28937;51.160;4.146;2022-08-25T03:26:58;26.00;90.80
43346;DHT22;28937;51.160;4.146;2022-08-25T03:29:26;26.00;90.80
43346;DHT22;28937;51.160;4.146;2022-08-25T03:31:53;25.90;90.80
43346;DHT22;28937;51.160;4.146;2022-08-25T03:34:21;26.00;90.70
43346;DHT22;28937;51.160;4.146;2022-08-25T03:36:50;26.00;90.70
43346;DHT22;28937;51.160;4.146;2022-08-25T03:39:17;26.00;90.70
43346;DHT22;28937;51.160;4.146;2022-08-25T03:41:43;26.00;90.60
43346;DHT22;28937;51.160;4.146;2022-08-25T03:44:09;26.00;90.50
43346;DHT22;28937;51.160;4.146;2022-08-25T03:46:43;25.80;90.70
43346;DHT22;28937;51.160;4.146;2022-08-25T03:49:12;25.80;90.90
43346;DHT22;28937;51.160;4.146;2022-08-25T03:51:44;25.80;90.80
43346;DHT22;28937;51.160;4.146;2022-08-25T03:54:12;25.70;90.90
43346;DHT22;28937;51.160;4.146;2022-08-25T03:56:38;25.70;90.90
43346;DHT22;28937;51.160;4.146;2022-08-25T03:59:04;25.70;90.90
43346;DHT22;28937;51.160;4.146;2022-08-25T04:01:34;25.50;91.00
43346;DHT22;28937;51.160;4.146;2022-08-25T04:04:01;25.50;91.20
43346;DHT22;28937;51.160;4.146;2022-08-25T04:06:26;25.40;91.20
43346;DHT22;28937;51.160;4.146;2022-08-25T04:08:52;25.30;91.30
43346;DHT22;28937;51.160;4.146;2022-08-25T04:11:21;25.30;91.50
43346;DHT22;28937;51.160;4.146;2022-08-25T04:13:47;25.30;91.40
43346;DHT22;28937;51.160;4.146;2022-08-25T04:16:17;25.40;91.10
43346;DHT22;28937;51.160;4.146;2022-08-25T04:18:44;25.50;90.80
43346;DHT22;28937;51.160;4.146;2022-08-25T04:21:11;25.60;90.60
43346;DHT22;28937;51.160;4.146;2022-08-25T04:23:39;25.70;90.40
43346;DHT22;28937;51.160;4.146;2022-08-25T04:26:10;25.80;90.30
43346;DHT22;28937;51.160;4.146;2022-08-25T04:28:36;25.80;90.20
43346;DHT22;28937;51.160;4.146;2022-08-25T04:31:05;25.70;90.30
43346;DHT22;28937;51.160;4.146;2022-08-25T04:33:31;25.60;90.60
43346;DHT22;28937;51.160;4.146;2022-08-25T04:35:57;25.50;90.80
43346;DHT22;28937;51.160;4.146;2022-08-25T04:38:23;25.60;90.40
43346;DHT22;28937;51.160;4.146;2022-08-25T04:41:05;25.60;90.40
43346;DHT22;28937;51.160;4.146;2022-08-25T04:43:32;25.70;90.30
43346;DHT22;28937;51.160;4.146;2022-08-25T04:46:03;25.70;90.20
43346;DHT22;28937;51.160;4.146;2022-08-25T04:48:29;25.70;90.30
43346;DHT22;28937;51.160;4.146;2022-08-25T04:50:56;25.70;90.30
43346;DHT22;28937;51.160;4.146;2022-08-25T04:53:22;25.60;90.30
43346;DHT22;28937;51.160;4.146;2022-08-25T04:55:48;25.70;90.30
43346;DHT22;28937;51.160;4.146;2022-08-25T04:58:15;25.70;90.30
43346;DHT22;28937;51.160;4.146;2022-08-25T05:00:41;25.70;90.20
43346;DHT22;28937;51.160;4.146;2022-08-25T05:03:08;25.70;90.20
43346;DHT22;28937;51.160;4.146;2022-08-25T05:05:37;25.70;90.00
43346;DHT22;28937;51.160;4.146;2022-08-25T05:08:04;25.70;89.90
43346;DHT22;28937;51.160;4.146;2022-08-25T05:10:31;25.80;89.80
43346;DHT22;28937;51.160;4.146;2022-08-25T05:12:57;25.70;89.80
43346;DHT22;28937;51.160;4.146;2022-08-25T05:15:25;25.80;89.80
43346;DHT22;28937;51.160;4.146;2022-08-25T05:18:09;25.80;89.80
43346;DHT22;28937;51.160;4.146;2022-08-25T05:20:36;25.80;89.70
43346;DHT22;28937;51.160;4.146;2022-08-25T05:23:02;25.70;89.80
43346;DHT22;28937;51.160;4.146;2022-08-25T05:25:28;25.70;89.70
43346;DHT22;28937;51.160;4.146;2022-08-25T05:27:54;25.80;89.70
43346;DHT22;28937;51.160;4.146;2022-08-25T05:30:19;25.70;89.40
43346;DHT22;28937;51.160;4.146;2022-08-25T05:32:45;25.70;89.30
43346;DHT22;28937;51.160;4.146;2022-08-25T05:35:11;25.70;89.30
43346;DHT22;28937;51.160;4.146;2022-08-25T05:37:36;25.70;89.10
43346;DHT22;28937;51.160;4.146;2022-08-25T05:40:04;25.70;89.20
43346;DHT22;28937;51.160;4.146;2022-08-25T05:42:30;25.70;89.20
43346;DHT22;28937;51.160;4.146;2022-08-25T05:44:56;25.70;89.40
43346;DHT22;28937;51.160;4.146;2022-08-25T05:47:22;25.70;89.40
43346;DHT22;28937;51.160;4.146;2022-08-25T05:49:47;25.70;89.40
43346;DHT22;28937;51.160;4.146;2022-08-25T05:52:13;25.70;89.50
43346;DHT22;28937;51.160;4.146;2022-08-25T05:54:39;25.70;89.70
43346;DHT22;28937;51.160;4.146;2022-08-25T05:57:06;25.70;89.00
43346;DHT22;28937;51.160;4.146;2022-08-25T05:59:32;25.70;89.10
43346;DHT22;28937;51.160;4.146;2022-08-25T06:01:57;25.70;90.20
43346;DHT22;28937;51.160;4.146;2022-08-25T06:04:42;25.60;90.40
43346;DHT22;28937;51.160;4.146;2022-08-25T06:07:08;25.50;90.60
43346;DHT22;28937;51.160;4.146;2022-08-25T06:09:36;25.50;90.80
43346;DHT22;28937;51.160;4.146;2022-08-25T06:12:01;25.50;90.90
43346;DHT22;28937;51.160;4.146;2022-08-25T06:14:27;25.50;90.80
43346;DHT22;28937;51.160;4.146;2022-08-25T06:16:53;25.50;90.80
43346;DHT22;28937;51.160;4.146;2022-08-25T06:19:18;25.50;90.80
43346;DHT22;28937;51.160;4.146;2022-08-25T06:21:45;25.50;90.40
43346;DHT22;28937;51.160;4.146;2022-08-25T06:24:11;25.60;90.40
43346;DHT22;28937;51.160;4.146;2022-08-25T06:26:37;25.50;90.60
43346;DHT22;28937;51.160;4.146;2022-08-25T06:29:03;25.60;90.70
43346;DHT22;28937;51.160;4.146;2022-08-25T06:31:28;25.50;90.50
43346;DHT22;28937;51.160;4.146;2022-08-25T06:33:54;25.60;90.50
43346;DHT22;28937;51.160;4.146;2022-08-25T06:36:20;25.60;90.40
43346;DHT22;28937;51.160;4.146;2022-08-25T06:38:46;25.60;90.40
43346;DHT22;28937;51.160;4.146;2022-08-25T06:41:12;25.60;90.60
43346;DHT22;28937;51.160;4.146;2022-08-25T06:43:41;25.60;90.60
43346;DHT22;28937;51.160;4.146;2022-08-25T06:46:20;25.50;90.50
43346;DHT22;28937;51.160;4.146;2022-08-25T06:48:47;25.50;90.60
43346;DHT22;28937;51.160;4.146;2022-08-25T06:51:15;25.60;90.50
43346;DHT22;28937;51.160;4.146;2022-08-25T06:53:42;25.60;90.40
43346;DHT22;28937;51.160;4.146;2022-08-25T06:56:08;25.60;90.40
43346;DHT22;28937;51.160;4.146;2022-08-25T06:58:34;25.60;90.20
43346;DHT22;28937;51.160;4.146;2022-08-25T07:01:18;25.60;90.00
43346;DHT22;28937;51.160;4.146;2022-08-25T07:03:47;25.60;89.70
43346;DHT22;28937;51.160;4.146;2022-08-25T07:06:13;25.60;89.80
43346;DHT22;28937;51.160;4.146;2022-08-25T07:08:38;25.70;89.40
43346;DHT22;28937;51.160;4.146;2022-08-25T07:11:08;25.60;89.40
43346;DHT22;28937;51.160;4.146;2022-08-25T07:13:35;25.60;89.10
43346;DHT22;28937;51.160;4.146;2022-08-25T07:16:01;25.60;89.00
43346;DHT22;28937;51.160;4.146;2022-08-25T07:18:27;25.60;89.00
43346;DHT22;28937;51.160;4.146;2022-08-25T07:20:54;25.70;89.00
43346;DHT22;28937;51.160;4.146;2022-08-25T07:23:21;25.60;89.10
43346;DHT22;28937;51.160;4.146;2022-08-25T07:25:47;25.60;90.40
43346;DHT22;28937;51.160;4.146;2022-08-25T07:28:15;25.70;90.80
43346;DHT22;28937;51.160;4.146;2022-08-25T07:30:41;25.70;90.80
43346;DHT22;28937;51.160;4.146;2022-08-25T07:33:07;25.70;90.80
43346;DHT22;28937;51.160;4.146;2022-08-25T07:35:33;25.70;90.90
43346;DHT22;28937;51.160;4.146;2022-08-25T07:38:01;25.70;90.80
43346;DHT22;28937;51.160;4.146;2022-08-25T07:40:33;25.70;90.70
43346;DHT22;28937;51.160;4.146;2022-08-25T07:43:05;25.70;91.10
43346;DHT22;28937;51.160;4.146;2022-08-25T07:45:34;25.80;91.00
43346;DHT22;28937;51.160;4.146;2022-08-25T07:48:04;25.80;91.00
43346;DHT22;28937;51.160;4.146;2022-08-25T07:50:31;25.80;93.70
43346;DHT22;28937;51.160;4.146;2022-08-25T07:52:57;25.90;93.20
43346;DHT22;28937;51.160;4.146;2022-08-25T07:55:25;25.90;92.30
43346;DHT22;28937;51.160;4.146;2022-08-25T07:57:52;25.90;91.80
43346;DHT22;28937;51.160;4.146;2022-08-25T08:00:18;25.90;91.10
43346;DHT22;28937;51.160;4.146;2022-08-25T08:02:44;25.90;90.90
43346;DHT22;28937;51.160;4.146;2022-08-25T08:05:11;26.00;90.60
43346;DHT22;28937;51.160;4.146;2022-08-25T08:07:37;26.00;90.40
43346;DHT22;28937;51.160;4.146;2022-08-25T08:10:05;26.00;90.00
43346;DHT22;28937;51.160;4.146;2022-08-25T08:12:31;26.00;89.70
43346;DHT22;28937;51.160;4.146;2022-08-25T08:14:58;26.00;88.50
43346;DHT22;28937;51.160;4.146;2022-08-25T08:17:24;26.10;88.30
43346;DHT22;28937;51.160;4.146;2022-08-25T08:19:50;26.10;88.40
43346;DHT22;28937;51.160;4.146;2022-08-25T08:22:17;26.10;88.30
43346;DHT22;28937;51.160;4.146;2022-08-25T08:24:43;26.20;88.70
43346;DHT22;28937;51.160;4.146;2022-08-25T08:27:11;26.20;88.40
43346;DHT22;28937;51.160;4.146;2022-08-25T08:29:38;26.20;88.40
43346;DHT22;28937;51.160;4.146;2022-08-25T08:32:07;26.20;88.40
43346;DHT22;28937;51.160;4.146;2022-08-25T08:34:33;26.20;88.10
43346;DHT22;28937;51.160;4.146;2022-08-25T08:37:00;26.20;86.60
43346;DHT22;28937;51.160;4.146;2022-08-25T08:39:27;26.30;86.10
43346;DHT22;28937;51.160;4.146;2022-08-25T08:55:27;26.40;89.50
43346;DHT22;28937;51.160;4.146;2022-08-25T08:57:57;26.40;88.90
43346;DHT22;28937;51.160;4.146;2022-08-25T09:00:23;26.40;88.50
43346;DHT22;28937;51.160;4.146;2022-08-25T09:02:56;26.40;88.90
43346;DHT22;28937;51.160;4.146;2022-08-25T09:05:26;26.50;89.10
43346;DHT22;28937;51.160;4.146;2022-08-25T09:07:58;26.50;89.50
43346;DHT22;28937;51.160;4.146;2022-08-25T09:10:30;26.50;89.40
43346;DHT22;28937;51.160;4.146;2022-08-25T09:13:07;26.50;86.90
43346;DHT22;28937;51.160;4.146;2022-08-25T09:21:16;26.60;87.80
43346;DHT22;28937;51.160;4.146;2022-08-25T09:29:14;26.50;88.20
43346;DHT22;28937;51.160;4.146;2022-08-25T09:31:41;26.50;88.30
43346;DHT22;28937;51.160;4.146;2022-08-25T09:34:17;26.60;87.30
43346;DHT22;28937;51.160;4.146;2022-08-25T09:36:43;26.60;87.30
43346;DHT22;28937;51.160;4.146;2022-08-25T09:39:10;26.60;86.10
43346;DHT22;28937;51.160;4.146;2022-08-25T09:41:54;26.60;86.30
43346;DHT22;28937;51.160;4.146;2022-08-25T09:46:59;26.60;85.70
43346;DHT22;28937;51.160;4.146;2022-08-25T09:49:48;26.70;85.70
43346;DHT22;28937;51.160;4.146;2022-08-25T09:54:55;26.70;86.00
43346;DHT22;28937;51.160;4.146;2022-08-25T09:57:44;26.70;86.70
43346;DHT22;28937;51.160;4.146;2022-08-25T10:02:41;26.70;86.10
43346;DHT22;28937;51.160;4.146;2022-08-25T10:05:23;26.80;85.00
43346;DHT22;28937;51.160;4.146;2022-08-25T10:08:02;26.70;85.50
43346;DHT22;28937;51.160;4.146;2022-08-25T10:10:34;26.80;85.00
43346;DHT22;28937;51.160;4.146;2022-08-25T10:13:17;26.80;85.40
43346;DHT22;28937;51.160;4.146;2022-08-25T10:15:42;26.80;85.40
43346;DHT22;28937;51.160;4.146;2022-08-25T10:18:23;26.80;85.40
43346;DHT22;28937;51.160;4.146;2022-08-25T10:21:11;26.80;85.30
43346;DHT22;28937;51.160;4.146;2022-08-25T10:23:48;26.80;84.40
43346;DHT22;28937;51.160;4.146;2022-08-25T10:32:17;26.90;83.40
43346;DHT22;28937;51.160;4.146;2022-08-25T10:34:48;26.90;83.10
43346;DHT22;28937;51.160;4.146;2022-08-25T10:40:22;27.00;83.20
43346;DHT22;28937;51.160;4.146;2022-08-25T10:45:44;27.10;83.20
43346;DHT22;28937;51.160;4.146;2022-08-25T10:56:24;27.20;82.60
43346;DHT22;28937;51.160;4.146;2022-08-25T10:59:17;27.20;82.30
43346;DHT22;28937;51.160;4.146;2022-08-25T11:02:08;27.20;82.00
43346;DHT22;28937;51.160;4.146;2022-08-25T11:04:47;27.20;82.10
43346;DHT22;28937;51.160;4.146;2022-08-25T11:07:41;27.10;82.40
43346;DHT22;28937;51.160;4.146;2022-08-25T11:10:19;27.20;82.40
43346;DHT22;28937;51.160;4.146;2022-08-25T11:12:56;27.20;82.50
43346;DHT22;28937;51.160;4.146;2022-08-25T11:18:13;27.20;83.10
43346;DHT22;28937;51.160;4.146;2022-08-25T11:20:44;27.20;83.00
43346;DHT22;28937;51.160;4.146;2022-08-25T11:23:24;27.20;82.80
43346;DHT22;28937;51.160;4.146;2022-08-25T11:25:58;27.20;82.80
43346;DHT22;28937;51.160;4.146;2022-08-25T11:31:27;27.20;83.10
43346;DHT22;28937;51.160;4.146;2022-08-25T11:33:54;27.30;81.60
43346;DHT22;28937;51.160;4.146;2022-08-25T11:36:30;27.30;80.80
43346;DHT22;28937;51.160;4.146;2022-08-25T11:41:40;27.30;81.70
43346;DHT22;28937;51.160;4.146;2022-08-25T11:49:57;27.40;81.20
43346;DHT22;28937;51.160;4.146;2022-08-25T11:55:13;27.40;81.30
43346;DHT22;28937;51.160;4.146;2022-08-25T11:57:41;27.50;81.50
43346;DHT22;28937;51.160;4.146;2022-08-25T12:11:02;27.60;81.90
43346;DHT22;28937;51.160;4.146;2022-08-25T12:16:37;27.60;82.10
43346;DHT22;28937;51.160;4.146;2022-08-25T12:21:56;27.60;82.00
43346;DHT22;28937;51.160;4.146;2022-08-25T12:27:23;27.70;82.30
43346;DHT22;28937;51.160;4.146;2022-08-25T12:33:09;27.80;81.90
43346;DHT22;28937;51.160;4.146;2022-08-25T12:35:51;27.80;82.10
43346;DHT22;28937;51.160;4.146;2022-08-25T12:41:17;27.90;82.50
43346;DHT22;28937;51.160;4.146;2022-08-25T12:43:46;27.90;82.30
43346;DHT22;28937;51.160;4.146;2022-08-25T12:49:31;27.90;82.20
43346;DHT22;28937;51.160;4.146;2022-08-25T12:52:06;27.90;82.20
43346;DHT22;28937;51.160;4.146;2022-08-25T12:54:38;27.90;82.40
43346;DHT22;28937;51.160;4.146;2022-08-25T13:00:27;27.90;82.80
43346;DHT22;28937;51.160;4.146;2022-08-25T13:03:28;28.00;82.70
43346;DHT22;28937;51.160;4.146;2022-08-25T13:06:17;27.90;82.60
43346;DHT22;28937;51.160;4.146;2022-08-25T13:11:28;28.00;82.90
43346;DHT22;28937;51.160;4.146;2022-08-25T13:14:53;28.00;83.10
43346;DHT22;28937;51.160;4.146;2022-08-25T13:16:58;28.00;82.70
43346;DHT22;28937;51.160;4.146;2022-08-25T13:19:26;28.00;82.60
43346;DHT22;28937;51.160;4.146;2022-08-25T13:21:53;28.10;82.60
43346;DHT22;28937;51.160;4.146;2022-08-25T13:24:31;28.20;81.70
43346;DHT22;28937;51.160;4.146;2022-08-25T13:27:07;28.10;82.10
43346;DHT22;28937;51.160;4.146;2022-08-25T13:29:36;28.10;82.20
43346;DHT22;28937;51.160;4.146;2022-08-25T13:32:13;28.10;81.80
43346;DHT22;28937;51.160;4.146;2022-08-25T13:34:41;28.10;82.40
43346;DHT22;28937;51.160;4.146;2022-08-25T13:37:25;28.20;82.50
43346;DHT22;28937;51.160;4.146;2022-08-25T13:40:11;28.20;82.00
43346;DHT22;28937;51.160;4.146;2022-08-25T13:42:40;28.20;81.40
43346;DHT22;28937;51.160;4.146;2022-08-25T13:45:07;28.20;82.00
43346;DHT22;28937;51.160;4.146;2022-08-25T13:47:35;28.20;82.00
43346;DHT22;28937;51.160;4.146;2022-08-25T13:52:50;28.20;83.40
43346;DHT22;28937;51.160;4.146;2022-08-25T13:57:58;28.20;83.10
43346;DHT22;28937;51.160;4.146;2022-08-25T14:00:28;28.20;83.40
43346;DHT22;28937;51.160;4.146;2022-08-25T14:02:54;28.20;83.70
43346;DHT22;28937;51.160;4.146;2022-08-25T14:05:38;28.20;83.80
43346;DHT22;28937;51.160;4.146;2022-08-25T14:08:06;28.20;83.70
43346;DHT22;28937;51.160;4.146;2022-08-25T14:10:42;28.30;83.10
43346;DHT22;28937;51.160;4.146;2022-08-25T14:13:15;28.30;82.50
43346;DHT22;28937;51.160;4.146;2022-08-25T14:16:10;28.30;82.10
43346;DHT22;28937;51.160;4.146;2022-08-25T14:18:37;28.40;80.10
43346;DHT22;28937;51.160;4.146;2022-08-25T14:21:09;28.40;81.00
43346;DHT22;28937;51.160;4.146;2022-08-25T14:23:36;28.40;82.00
43346;DHT22;28937;51.160;4.146;2022-08-25T14:26:03;28.40;80.40
43346;DHT22;28937;51.160;4.146;2022-08-25T14:28:29;28.40;82.10
43346;DHT22;28937;51.160;4.146;2022-08-25T14:31:04;28.40;80.80
43346;DHT22;28937;51.160;4.146;2022-08-25T14:33:37;28.40;81.40
43346;DHT22;28937;51.160;4.146;2022-08-25T14:36:05;28.40;81.90
43346;DHT22;28937;51.160;4.146;2022-08-25T14:38:31;28.40;82.80
43346;DHT22;28937;51.160;4.146;2022-08-25T14:40:58;28.40;82.20
43346;DHT22;28937;51.160;4.146;2022-08-25T14:43:24;28.50;82.60
43346;DHT22;28937;51.160;4.146;2022-08-25T14:45:50;28.50;82.70
43346;DHT22;28937;51.160;4.146;2022-08-25T14:48:31;28.50;83.70
43346;DHT22;28937;51.160;4.146;2022-08-25T14:50:59;28.60;85.00
43346;DHT22;28937;51.160;4.146;2022-08-25T14:53:26;28.60;84.50
43346;DHT22;28937;51.160;4.146;2022-08-25T14:55:52;28.60;85.70
43346;DHT22;28937;51.160;4.146;2022-08-25T14:58:22;28.50;83.90
43346;DHT22;28937;51.160;4.146;2022-08-25T15:00:49;28.60;85.00
43346;DHT22;28937;51.160;4.146;2022-08-25T15:03:20;28.70;86.50
43346;DHT22;28937;51.160;4.146;2022-08-25T15:05:48;28.70;86.30
43346;DHT22;28937;51.160;4.146;2022-08-25T15:08:14;28.60;85.40
43346;DHT22;28937;51.160;4.146;2022-08-25T15:10:58;28.60;85.00
43346;DHT22;28937;51.160;4.146;2022-08-25T15:13:24;28.60;85.30
43346;DHT22;28937;51.160;4.146;2022-08-25T15:15:52;28.60;85.60
43346;DHT22;28937;51.160;4.146;2022-08-25T15:18:17;28.60;85.20
43346;DHT22;28937;51.160;4.146;2022-08-25T15:20:43;28.60;85.50
43346;DHT22;28937;51.160;4.146;2022-08-25T15:23:09;28.60;85.20
43346;DHT22;28937;51.160;4.146;2022-08-25T15:25:35;28.60;86.00
43346;DHT22;28937;51.160;4.146;2022-08-25T15:28:05;28.70;87.10
43346;DHT22;28937;51.160;4.146;2022-08-25T15:30:33;28.60;86.60
43346;DHT22;28937;51.160;4.146;2022-08-25T15:32:59;28.70;86.00
43346;DHT22;28937;51.160;4.146;2022-08-25T15:35:25;28.60;86.30
43346;DHT22;28937;51.160;4.146;2022-08-25T15:37:51;28.60;86.60
43346;DHT22;28937;51.160;4.146;2022-08-25T15:40:17;28.50;87.10
43346;DHT22;28937;51.160;4.146;2022-08-25T15:42:43;28.50;87.00
43346;DHT22;28937;51.160;4.146;2022-08-25T15:45:10;28.50;86.90
43346;DHT22;28937;51.160;4.146;2022-08-25T15:47:36;28.50;87.30
43346;DHT22;28937;51.160;4.146;2022-08-25T15:50:07;28.50;87.40
43346;DHT22;28937;51.160;4.146;2022-08-25T15:52:34;28.50;87.40
43346;DHT22;28937;51.160;4.146;2022-08-25T15:55:00;28.50;87.50
43346;DHT22;28937;51.160;4.146;2022-08-25T15:57:26;28.40;87.60
43346;DHT22;28937;51.160;4.146;2022-08-25T15:59:51;28.40;87.70
43346;DHT22;28937;51.160;4.146;2022-08-25T16:02:17;28.50;89.70
43346;DHT22;28937;51.160;4.146;2022-08-25T16:04:43;28.50;87.80
43346;DHT22;28937;51.160;4.146;2022-08-25T16:07:09;28.40;88.50
43346;DHT22;28937;51.160;4.146;2022-08-25T16:09:35;28.50;89.30
43346;DHT22;28937;51.160;4.146;2022-08-25T16:12:01;28.50;90.00
43346;DHT22;28937;51.160;4.146;2022-08-25T16:14:27;28.50;90.30
43346;DHT22;28937;51.160;4.146;2022-08-25T16:16:53;28.50;90.70
43346;DHT22;28937;51.160;4.146;2022-08-25T16:19:19;28.50;90.70
43346;DHT22;28937;51.160;4.146;2022-08-25T16:21:44;28.50;90.80
43346;DHT22;28937;51.160;4.146;2022-08-25T16:24:10;28.50;90.80
43346;DHT22;28937;51.160;4.146;2022-08-25T16:26:36;28.60;90.50
43346;DHT22;28937;51.160;4.146;2022-08-25T16:29:09;28.60;90.30
43346;DHT22;28937;51.160;4.146;2022-08-25T16:31:37;28.60;90.40
43346;DHT22;28937;51.160;4.146;2022-08-25T16:34:02;28.60;90.60
43346;DHT22;28937;51.160;4.146;2022-08-25T16:36:29;28.60;90.60
43346;DHT22;28937;51.160;4.146;2022-08-25T16:38:56;28.60;90.60
43346;DHT22;28937;51.160;4.146;2022-08-25T16:41:24;28.60;90.80
43346;DHT22;28937;51.160;4.146;2022-08-25T16:43:51;28.60;90.80
43346;DHT22;28937;51.160;4.146;2022-08-25T16:46:19;28.60;90.70
43346;DHT22;28937;51.160;4.146;2022-08-25T16:48:46;28.60;90.90
43346;DHT22;28937;51.160;4.146;2022-08-25T16:51:20;28.60;91.00
43346;DHT22;28937;51.160;4.146;2022-08-25T16:53:46;28.60;91.00
43346;DHT22;28937;51.160;4.146;2022-08-25T16:56:33;28.60;91.60
43346;DHT22;28937;51.160;4.146;2022-08-25T16:59:00;28.60;91.20
43346;DHT22;28937;51.160;4.146;2022-08-25T17:01:28;28.60;90.90
43346;DHT22;28937;51.160;4.146;2022-08-25T17:03:56;28.60;90.90
43346;DHT22;28937;51.160;4.146;2022-08-25T17:06:24;28.60;90.90
43346;DHT22;28937;51.160;4.146;2022-08-25T17:08:50;28.60;91.00
43346;DHT22;28937;51.160;4.146;2022-08-25T17:11:25;28.60;90.80
43346;DHT22;28937;51.160;4.146;2022-08-25T17:13:53;28.60;90.70
43346;DHT22;28937;51.160;4.146;2022-08-25T17:16:21;28.60;90.70
43346;DHT22;28937;51.160;4.146;2022-08-25T17:18:50;28.60;91.10
43346;DHT22;28937;51.160;4.146;2022-08-25T17:21:17;28.50;90.70
43346;DHT22;28937;51.160;4.146;2022-08-25T17:23:46;28.50;90.70
43346;DHT22;28937;51.160;4.146;2022-08-25T17:26:14;28.50;90.60
43346;DHT22;28937;51.160;4.146;2022-08-25T17:28:40;28.60;90.60
43346;DHT22;28937;51.160;4.146;2022-08-25T17:31:07;28.60;90.50
43346;DHT22;28937;51.160;4.146;2022-08-25T17:33:33;28.50;90.60
43346;DHT22;28937;51.160;4.146;2022-08-25T17:35:58;28.50;90.70
43346;DHT22;28937;51.160;4.146;2022-08-25T17:38:26;28.50;90.80